sensor_id;sensor_type;location;lat;lon;timestamp;P1;durP1;ratioP1;P2;durP2;ratioP2
42742;SDS011;28397;44.552;-0.848;2023-02-28T00:00:16;70.78;;;33.60;;
42742;SDS011;28397;44.552;-0.848;2023-02-28T00:02:43;69.43;;;34.20;;
42742;SDS011;28397;44.552;-0.848;2023-02-28T00:05:10;68.43;;;32.50;;
42742;SDS011;28397;44.552;-0.848;2023-02-28T00:07:37;55.70;;;28.85;;
42742;SDS011;28397;44.552;-0.848;2023-02-28T00:10:07;57.90;;;26.20;;
42742;SDS011;28397;44.552;-0.848;2023-02-28T00:12:35;57.75;;;25.33;;
42742;SDS011;28397;44.552;-0.848;2023-02-28T00:15:02;53.50;;;26.20;;
42742;SDS011;28397;44.552;-0.848;2023-02-28T00:17:31;46.45;;;25.45;;
42742;SDS011;28397;44.552;-0.848;2023-02-28T00:19:57;47.47;;;26.45;;
42742;SDS011;28397;44.552;-0.848;2023-02-28T00:22:36;46.40;;;26.75;;
42742;SDS011;28397;44.552;-0.848;2023-02-28T00:25:07;43.15;;;26.83;;
42742;SDS011;28397;44.552;-0.848;2023-02-28T00:27:38;53.47;;;30.40;;
42742;SDS011;28397;44.552;-0.848;2023-02-28T00:30:05;47.33;;;26.95;;
42742;SDS011;28397;44.552;-0.848;2023-02-28T00:32:33;43.53;;;23.98;;
42742;SDS011;28397;44.552;-0.848;2023-02-28T00:34:59;33.60;;;19.73;;
42742;SDS011;28397;44.552;-0.848;2023-02-28T00:37:25;30.13;;;18.10;;
42742;SDS011;28397;44.552;-0.848;2023-02-28T00:39:51;28.60;;;17.00;;
42742;SDS011;28397;44.552;-0.848;2023-02-28T00:42:17;24.80;;;15.27;;
42742;SDS011;28397;44.552;-0.848;2023-02-28T00:44:43;21.40;;;13.77;;
42742;SDS011;28397;44.552;-0.848;2023-02-28T00:47:08;21.23;;;15.43;;
42742;SDS011;28397;44.552;-0.848;2023-02-28T00:49:34;32.15;;;20.35;;
42742;SDS011;28397;44.552;-0.848;2023-02-28T00:52:00;33.30;;;21.80;;
42742;SDS011;28397;44.552;-0.848;2023-02-28T00:54:25;33.78;;;21.75;;
42742;SDS011;28397;44.552;-0.848;2023-02-28T00:56:51;37.97;;;23.00;;
42742;SDS011;28397;44.552;-0.848;2023-02-28T00:59:17;34.55;;;23.58;;
42742;SDS011;28397;44.552;-0.848;2023-02-28T01:01:44;35.15;;;23.48;;
42742;SDS011;28397;44.552;-0.848;2023-02-28T01:04:11;32.97;;;22.98;;
42742;SDS011;28397;44.552;-0.848;2023-02-28T01:06:37;30.98;;;21.70;;
42742;SDS011;28397;44.552;-0.848;2023-02-28T01:09:04;28.20;;;20.80;;
42742;SDS011;28397;44.552;-0.848;2023-02-28T01:11:30;33.38;;;20.92;;
42742;SDS011;28397;44.552;-0.848;2023-02-28T01:13:57;34.65;;;22.63;;
42742;SDS011;28397;44.552;-0.848;2023-02-28T01:16:23;45.08;;;27.05;;
42742;SDS011;28397;44.552;-0.848;2023-02-28T01:18:49;41.30;;;25.42;;
42742;SDS011;28397;44.552;-0.848;2023-02-28T01:21:16;50.58;;;28.20;;
42742;SDS011;28397;44.552;-0.848;2023-02-28T01:23:43;50.30;;;29.08;;
42742;SDS011;28397;44.552;-0.848;2023-02-28T01:26:11;49.47;;;28.38;;
42742;SDS011;28397;44.552;-0.848;2023-02-28T01:28:48;49.60;;;30.48;;
42742;SDS011;28397;44.552;-0.848;2023-02-28T01:31:14;53.92;;;36.17;;
42742;SDS011;28397;44.552;-0.848;2023-02-28T01:33:41;44.47;;;28.63;;
42742;SDS011;28397;44.552;-0.848;2023-02-28T01:36:09;43.83;;;29.08;;
42742;SDS011;28397;44.552;-0.848;2023-02-28T01:38:43;46.05;;;27.55;;
42742;SDS011;28397;44.552;-0.848;2023-02-28T01:41:12;38.97;;;25.48;;
42742;SDS011;28397;44.552;-0.848;2023-02-28T01:46:13;37.38;;;24.38;;
42742;SDS011;28397;44.552;-0.848;2023-02-28T01:48:51;38.92;;;25.00;;
42742;SDS011;28397;44.552;-0.848;2023-02-28T01:52:00;37.42;;;24.15;;
42742;SDS011;28397;44.552;-0.848;2023-02-28T01:54:27;36.28;;;24.50;;
42742;SDS011;28397;44.552;-0.848;2023-02-28T01:56:57;37.75;;;25.02;;
42742;SDS011;28397;44.552;-0.848;2023-02-28T01:59:33;43.90;;;28.67;;
42742;SDS011;28397;44.552;-0.848;2023-02-28T02:02:05;64.82;;;44.70;;
42742;SDS011;28397;44.552;-0.848;2023-02-28T02:04:36;52.60;;;37.47;;
42742;SDS011;28397;44.552;-0.848;2023-02-28T02:07:05;45.80;;;32.92;;
42742;SDS011;28397;44.552;-0.848;2023-02-28T02:09:32;44.08;;;30.27;;
42742;SDS011;28397;44.552;-0.848;2023-02-28T02:11:57;59.92;;;42.28;;
42742;SDS011;28397;44.552;-0.848;2023-02-28T02:22:41;41.15;;;24.85;;
42742;SDS011;28397;44.552;-0.848;2023-02-28T02:25:32;33.50;;;20.33;;
42742;SDS011;28397;44.552;-0.848;2023-02-28T02:28:34;37.50;;;23.33;;
42742;SDS011;28397;44.552;-0.848;2023-02-28T02:31:19;39.42;;;23.00;;
42742;SDS011;28397;44.552;-0.848;2023-02-28T02:36:53;32.20;;;20.42;;
42742;SDS011;28397;44.552;-0.848;2023-02-28T02:40:16;32.97;;;19.77;;
42742;SDS011;28397;44.552;-0.848;2023-02-28T02:45:37;43.03;;;25.92;;
42742;SDS011;28397;44.552;-0.848;2023-02-28T02:48:11;43.60;;;28.52;;
42742;SDS011;28397;44.552;-0.848;2023-02-28T02:50:45;30.85;;;19.85;;
42742;SDS011;28397;44.552;-0.848;2023-02-28T02:53:14;25.55;;;16.83;;
42742;SDS011;28397;44.552;-0.848;2023-02-28T02:55:44;20.75;;;14.07;;
42742;SDS011;28397;44.552;-0.848;2023-02-28T02:58:18;20.45;;;13.30;;
42742;SDS011;28397;44.552;-0.848;2023-02-28T03:00:49;17.45;;;12.00;;
42742;SDS011;28397;44.552;-0.848;2023-02-28T03:03:18;18.30;;;12.90;;
42742;SDS011;28397;44.552;-0.848;2023-02-28T03:05:54;24.52;;;15.48;;
42742;SDS011;28397;44.552;-0.848;2023-02-28T03:08:34;24.27;;;15.50;;
42742;SDS011;28397;44.552;-0.848;2023-02-28T03:11:05;26.63;;;17.02;;
42742;SDS011;28397;44.552;-0.848;2023-02-28T03:13:49;29.20;;;18.35;;
42742;SDS011;28397;44.552;-0.848;2023-02-28T03:16:35;35.08;;;22.10;;
42742;SDS011;28397;44.552;-0.848;2023-02-28T03:19:14;24.38;;;16.38;;
42742;SDS011;28397;44.552;-0.848;2023-02-28T03:21:51;23.60;;;15.18;;
42742;SDS011;28397;44.552;-0.848;2023-02-28T03:24:33;33.75;;;22.40;;
42742;SDS011;28397;44.552;-0.848;2023-02-28T03:27:34;54.90;;;37.22;;
42742;SDS011;28397;44.552;-0.848;2023-02-28T03:30:02;68.45;;;42.05;;
42742;SDS011;28397;44.552;-0.848;2023-02-28T03:32:38;53.88;;;36.45;;
42742;SDS011;28397;44.552;-0.848;2023-02-28T03:35:21;43.33;;;28.52;;
42742;SDS011;28397;44.552;-0.848;2023-02-28T03:38:10;118.30;;;63.40;;
42742;SDS011;28397;44.552;-0.848;2023-02-28T03:40:48;135.50;;;76.35;;
42742;SDS011;28397;44.552;-0.848;2023-02-28T03:43:18;115.10;;;63.83;;
42742;SDS011;28397;44.552;-0.848;2023-02-28T03:45:50;52.40;;;31.73;;
42742;SDS011;28397;44.552;-0.848;2023-02-28T03:50:44;46.83;;;28.48;;
42742;SDS011;28397;44.552;-0.848;2023-02-28T03:55:50;32.08;;;19.75;;
42742;SDS011;28397;44.552;-0.848;2023-02-28T03:58:44;34.88;;;20.02;;
42742;SDS011;28397;44.552;-0.848;2023-02-28T04:01:35;33.10;;;21.10;;
42742;SDS011;28397;44.552;-0.848;2023-02-28T04:04:06;26.80;;;18.10;;
42742;SDS011;28397;44.552;-0.848;2023-02-28T04:06:33;23.95;;;16.17;;
42742;SDS011;28397;44.552;-0.848;2023-02-28T04:08:59;20.52;;;14.02;;
42742;SDS011;28397;44.552;-0.848;2023-02-28T04:11:35;21.10;;;13.43;;
42742;SDS011;28397;44.552;-0.848;2023-02-28T04:14:10;22.90;;;14.52;;
42742;SDS011;28397;44.552;-0.848;2023-02-28T04:16:37;22.25;;;13.45;;
42742;SDS011;28397;44.552;-0.848;2023-02-28T04:19:05;23.50;;;15.68;;
42742;SDS011;28397;44.552;-0.848;2023-02-28T04:21:33;24.73;;;15.80;;
42742;SDS011;28397;44.552;-0.848;2023-02-28T04:24:01;23.00;;;15.05;;
42742;SDS011;28397;44.552;-0.848;2023-02-28T04:26:28;27.05;;;16.60;;
42742;SDS011;28397;44.552;-0.848;2023-02-28T04:28:58;24.17;;;15.05;;
42742;SDS011;28397;44.552;-0.848;2023-02-28T04:31:24;19.15;;;12.77;;
42742;SDS011;28397;44.552;-0.848;2023-02-28T04:33:50;15.75;;;12.00;;
42742;SDS011;28397;44.552;-0.848;2023-02-28T04:36:16;22.25;;;12.68;;
42742;SDS011;28397;44.552;-0.848;2023-02-28T04:38:45;19.50;;;11.98;;
42742;SDS011;28397;44.552;-0.848;2023-02-28T04:41:15;16.83;;;11.25;;
42742;SDS011;28397;44.552;-0.848;2023-02-28T04:43:41;14.50;;;10.23;;
42742;SDS011;28397;44.552;-0.848;2023-02-28T04:46:07;15.88;;;10.85;;
42742;SDS011;28397;44.552;-0.848;2023-02-28T04:48:34;18.25;;;11.20;;
42742;SDS011;28397;44.552;-0.848;2023-02-28T04:51:02;18.00;;;10.57;;
42742;SDS011;28397;44.552;-0.848;2023-02-28T04:53:36;15.50;;;10.02;;
42742;SDS011;28397;44.552;-0.848;2023-02-28T04:56:03;14.18;;;9.98;;
42742;SDS011;28397;44.552;-0.848;2023-02-28T04:58:29;16.98;;;9.55;;
42742;SDS011;28397;44.552;-0.848;2023-02-28T05:01:01;13.43;;;9.65;;
42742;SDS011;28397;44.552;-0.848;2023-02-28T05:04:00;14.65;;;9.15;;
42742;SDS011;28397;44.552;-0.848;2023-02-28T05:06:28;12.40;;;9.50;;
42742;SDS011;28397;44.552;-0.848;2023-02-28T05:08:55;11.93;;;8.40;;
42742;SDS011;28397;44.552;-0.848;2023-02-28T05:13:47;13.93;;;9.48;;
42742;SDS011;28397;44.552;-0.848;2023-02-28T05:16:13;15.30;;;9.27;;
42742;SDS011;28397;44.552;-0.848;2023-02-28T05:18:40;17.23;;;9.05;;
42742;SDS011;28397;44.552;-0.848;2023-02-28T05:21:06;13.18;;;9.00;;
42742;SDS011;28397;44.552;-0.848;2023-02-28T05:23:48;14.07;;;8.70;;
42742;SDS011;28397;44.552;-0.848;2023-02-28T05:26:14;12.98;;;9.13;;
42742;SDS011;28397;44.552;-0.848;2023-02-28T05:28:40;15.70;;;9.23;;
42742;SDS011;28397;44.552;-0.848;2023-02-28T05:31:05;16.95;;;9.77;;
42742;SDS011;28397;44.552;-0.848;2023-02-28T05:33:31;17.92;;;9.10;;
42742;SDS011;28397;44.552;-0.848;2023-02-28T05:35:56;18.35;;;9.85;;
42742;SDS011;28397;44.552;-0.848;2023-02-28T05:38:22;20.90;;;10.88;;
42742;SDS011;28397;44.552;-0.848;2023-02-28T05:40:48;19.45;;;10.70;;
42742;SDS011;28397;44.552;-0.848;2023-02-28T05:43:13;21.38;;;10.73;;
42742;SDS011;28397;44.552;-0.848;2023-02-28T05:45:39;14.35;;;10.18;;
42742;SDS011;28397;44.552;-0.848;2023-02-28T05:48:05;15.23;;;9.68;;
42742;SDS011;28397;44.552;-0.848;2023-02-28T05:50:31;17.25;;;10.27;;
42742;SDS011;28397;44.552;-0.848;2023-02-28T05:52:56;13.50;;;9.38;;
42742;SDS011;28397;44.552;-0.848;2023-02-28T05:55:22;14.93;;;9.25;;
42742;SDS011;28397;44.552;-0.848;2023-02-28T05:57:48;15.52;;;9.77;;
42742;SDS011;28397;44.552;-0.848;2023-02-28T06:00:14;19.55;;;11.73;;
42742;SDS011;28397;44.552;-0.848;2023-02-28T06:02:40;36.10;;;22.63;;
42742;SDS011;28397;44.552;-0.848;2023-02-28T06:05:24;28.98;;;18.08;;
42742;SDS011;28397;44.552;-0.848;2023-02-28T06:07:50;23.80;;;15.02;;
42742;SDS011;28397;44.552;-0.848;2023-02-28T06:10:15;31.15;;;19.58;;
42742;SDS011;28397;44.552;-0.848;2023-02-28T06:12:41;29.42;;;18.70;;
42742;SDS011;28397;44.552;-0.848;2023-02-28T06:15:10;33.88;;;21.10;;
42742;SDS011;28397;44.552;-0.848;2023-02-28T06:17:38;28.50;;;18.02;;
42742;SDS011;28397;44.552;-0.848;2023-02-28T06:20:04;32.83;;;19.80;;
42742;SDS011;28397;44.552;-0.848;2023-02-28T06:22:30;39.03;;;23.63;;
42742;SDS011;28397;44.552;-0.848;2023-02-28T06:24:56;40.47;;;24.25;;
42742;SDS011;28397;44.552;-0.848;2023-02-28T06:27:22;37.95;;;22.83;;
42742;SDS011;28397;44.552;-0.848;2023-02-28T06:29:48;37.72;;;21.65;;
42742;SDS011;28397;44.552;-0.848;2023-02-28T06:32:18;32.72;;;21.83;;
42742;SDS011;28397;44.552;-0.848;2023-02-28T06:34:43;27.70;;;18.77;;
42742;SDS011;28397;44.552;-0.848;2023-02-28T06:37:09;35.35;;;21.17;;
42742;SDS011;28397;44.552;-0.848;2023-02-28T06:39:35;28.00;;;19.42;;
42742;SDS011;28397;44.552;-0.848;2023-02-28T06:42:01;24.13;;;16.77;;
42742;SDS011;28397;44.552;-0.848;2023-02-28T06:44:27;22.15;;;14.77;;
42742;SDS011;28397;44.552;-0.848;2023-02-28T06:47:00;21.05;;;14.23;;
42742;SDS011;28397;44.552;-0.848;2023-02-28T06:49:28;21.88;;;14.02;;
42742;SDS011;28397;44.552;-0.848;2023-02-28T06:51:55;20.85;;;13.82;;
42742;SDS011;28397;44.552;-0.848;2023-02-28T06:54:20;16.17;;;12.43;;
42742;SDS011;28397;44.552;-0.848;2023-02-28T06:56:46;21.00;;;12.45;;
42742;SDS011;28397;44.552;-0.848;2023-02-28T06:59:12;16.67;;;11.20;;
42742;SDS011;28397;44.552;-0.848;2023-02-28T07:01:38;18.73;;;12.52;;
42742;SDS011;28397;44.552;-0.848;2023-02-28T07:04:04;18.08;;;11.50;;
42742;SDS011;28397;44.552;-0.848;2023-02-28T07:06:31;17.70;;;10.95;;
42742;SDS011;28397;44.552;-0.848;2023-02-28T07:08:57;16.48;;;9.93;;
42742;SDS011;28397;44.552;-0.848;2023-02-28T07:11:25;18.10;;;10.48;;
42742;SDS011;28397;44.552;-0.848;2023-02-28T07:13:53;14.38;;;9.98;;
42742;SDS011;28397;44.552;-0.848;2023-02-28T07:16:20;17.63;;;12.27;;
42742;SDS011;28397;44.552;-0.848;2023-02-28T07:18:46;18.20;;;12.52;;
42742;SDS011;28397;44.552;-0.848;2023-02-28T07:21:12;25.00;;;12.73;;
42742;SDS011;28397;44.552;-0.848;2023-02-28T07:23:38;21.13;;;12.73;;
42742;SDS011;28397;44.552;-0.848;2023-02-28T07:26:05;20.55;;;11.90;;
42742;SDS011;28397;44.552;-0.848;2023-02-28T07:28:31;18.63;;;12.70;;
42742;SDS011;28397;44.552;-0.848;2023-02-28T07:31:02;16.42;;;12.07;;
42742;SDS011;28397;44.552;-0.848;2023-02-28T07:33:30;17.50;;;11.38;;
42742;SDS011;28397;44.552;-0.848;2023-02-28T07:36:03;16.85;;;11.32;;
42742;SDS011;28397;44.552;-0.848;2023-02-28T07:38:31;20.63;;;11.88;;
42742;SDS011;28397;44.552;-0.848;2023-02-28T07:40:59;18.58;;;13.32;;
42742;SDS011;28397;44.552;-0.848;2023-02-28T07:43:25;21.48;;;14.23;;
42742;SDS011;28397;44.552;-0.848;2023-02-28T07:45:51;20.23;;;13.82;;
42742;SDS011;28397;44.552;-0.848;2023-02-28T07:48:16;18.65;;;12.50;;
42742;SDS011;28397;44.552;-0.848;2023-02-28T07:50:42;20.30;;;13.38;;
42742;SDS011;28397;44.552;-0.848;2023-02-28T07:53:08;18.85;;;11.50;;
42742;SDS011;28397;44.552;-0.848;2023-02-28T07:55:34;19.98;;;11.32;;
42742;SDS011;28397;44.552;-0.848;2023-02-28T07:58:00;10.70;;;8.38;;
42742;SDS011;28397;44.552;-0.848;2023-02-28T08:00:25;8.77;;;6.53;;
42742;SDS011;28397;44.552;-0.848;2023-02-28T08:02:51;6.88;;;5.13;;
42742;SDS011;28397;44.552;-0.848;2023-02-28T08:05:17;6.57;;;5.35;;
42742;SDS011;28397;44.552;-0.848;2023-02-28T08:07:42;11.85;;;6.20;;
42742;SDS011;28397;44.552;-0.848;2023-02-28T08:10:08;8.40;;;6.15;;
42742;SDS011;28397;44.552;-0.848;2023-02-28T08:12:35;8.75;;;5.40;;
42742;SDS011;28397;44.552;-0.848;2023-02-28T08:15:01;10.73;;;5.90;;
42742;SDS011;28397;44.552;-0.848;2023-02-28T08:17:26;6.63;;;5.13;;
42742;SDS011;28397;44.552;-0.848;2023-02-28T08:19:52;6.78;;;4.45;;
42742;SDS011;28397;44.552;-0.848;2023-02-28T08:22:18;5.32;;;4.38;;
42742;SDS011;28397;44.552;-0.848;2023-02-28T08:24:44;5.63;;;4.50;;
42742;SDS011;28397;44.552;-0.848;2023-02-28T08:27:10;5.07;;;4.45;;
42742;SDS011;28397;44.552;-0.848;2023-02-28T08:29:38;9.60;;;5.60;;
42742;SDS011;28397;44.552;-0.848;2023-02-28T08:32:05;6.95;;;4.50;;
42742;SDS011;28397;44.552;-0.848;2023-02-28T08:34:32;7.32;;;5.68;;
42742;SDS011;28397;44.552;-0.848;2023-02-28T08:36:57;7.97;;;5.60;;
42742;SDS011;28397;44.552;-0.848;2023-02-28T08:39:24;9.25;;;5.07;;
42742;SDS011;28397;44.552;-0.848;2023-02-28T08:41:49;8.35;;;5.13;;
42742;SDS011;28397;44.552;-0.848;2023-02-28T08:44:15;6.93;;;4.70;;
42742;SDS011;28397;44.552;-0.848;2023-02-28T08:46:41;9.30;;;5.90;;
42742;SDS011;28397;44.552;-0.848;2023-02-28T08:49:06;4.88;;;4.13;;
42742;SDS011;28397;44.552;-0.848;2023-02-28T08:51:35;4.97;;;4.20;;
42742;SDS011;28397;44.552;-0.848;2023-02-28T08:54:00;5.78;;;4.25;;
42742;SDS011;28397;44.552;-0.848;2023-02-28T08:56:27;5.28;;;4.70;;
42742;SDS011;28397;44.552;-0.848;2023-02-28T08:58:54;5.82;;;4.95;;
42742;SDS011;28397;44.552;-0.848;2023-02-28T09:01:22;4.95;;;4.45;;
42742;SDS011;28397;44.552;-0.848;2023-02-28T09:03:52;5.53;;;4.05;;
42742;SDS011;28397;44.552;-0.848;2023-02-28T09:06:19;5.07;;;4.57;;
42742;SDS011;28397;44.552;-0.848;2023-02-28T09:08:46;5.22;;;4.20;;
42742;SDS011;28397;44.552;-0.848;2023-02-28T09:11:12;5.28;;;4.60;;
42742;SDS011;28397;44.552;-0.848;2023-02-28T09:13:38;5.55;;;4.32;;
42742;SDS011;28397;44.552;-0.848;2023-02-28T09:16:05;6.57;;;4.80;;
42742;SDS011;28397;44.552;-0.848;2023-02-28T09:18:33;6.07;;;4.50;;
42742;SDS011;28397;44.552;-0.848;2023-02-28T09:21:03;6.63;;;4.50;;
42742;SDS011;28397;44.552;-0.848;2023-02-28T09:23:32;6.28;;;4.35;;
42742;SDS011;28397;44.552;-0.848;2023-02-28T09:25:58;4.90;;;4.38;;
42742;SDS011;28397;44.552;-0.848;2023-02-28T09:28:24;5.63;;;4.50;;
42742;SDS011;28397;44.552;-0.848;2023-02-28T09:30:51;6.25;;;3.80;;
42742;SDS011;28397;44.552;-0.848;2023-02-28T09:33:18;5.28;;;4.47;;
42742;SDS011;28397;44.552;-0.848;2023-02-28T09:35:56;10.75;;;5.00;;
42742;SDS011;28397;44.552;-0.848;2023-02-28T09:38:25;7.43;;;4.60;;
42742;SDS011;28397;44.552;-0.848;2023-02-28T09:40:51;5.93;;;4.30;;
42742;SDS011;28397;44.552;-0.848;2023-02-28T09:43:21;6.50;;;4.00;;
42742;SDS011;28397;44.552;-0.848;2023-02-28T09:45:51;5.68;;;4.47;;
42742;SDS011;28397;44.552;-0.848;2023-02-28T09:48:25;6.82;;;4.15;;
42742;SDS011;28397;44.552;-0.848;2023-02-28T09:51:02;4.60;;;3.97;;
42742;SDS011;28397;44.552;-0.848;2023-02-28T09:53:34;4.68;;;4.13;;
42742;SDS011;28397;44.552;-0.848;2023-02-28T09:56:07;6.15;;;4.20;;
42742;SDS011;28397;44.552;-0.848;2023-02-28T10:01:46;5.30;;;4.30;;
42742;SDS011;28397;44.552;-0.848;2023-02-28T10:04:37;5.07;;;4.45;;
42742;SDS011;28397;44.552;-0.848;2023-02-28T10:10:42;4.80;;;4.40;;
42742;SDS011;28397;44.552;-0.848;2023-02-28T10:13:04;5.07;;;4.57;;
42742;SDS011;28397;44.552;-0.848;2023-02-28T10:15:58;8.48;;;4.40;;
42742;SDS011;28397;44.552;-0.848;2023-02-28T10:18:44;5.00;;;4.00;;
42742;SDS011;28397;44.552;-0.848;2023-02-28T10:21:16;5.32;;;4.13;;
42742;SDS011;28397;44.552;-0.848;2023-02-28T10:23:46;5.55;;;4.60;;
42742;SDS011;28397;44.552;-0.848;2023-02-28T10:26:14;5.20;;;4.10;;
42742;SDS011;28397;44.552;-0.848;2023-02-28T10:28:41;5.47;;;3.90;;
42742;SDS011;28397;44.552;-0.848;2023-02-28T10:31:10;5.05;;;4.43;;
42742;SDS011;28397;44.552;-0.848;2023-02-28T10:33:41;5.57;;;4.32;;
42742;SDS011;28397;44.552;-0.848;2023-02-28T10:36:08;6.10;;;4.43;;
42742;SDS011;28397;44.552;-0.848;2023-02-28T10:38:42;4.60;;;4.10;;
42742;SDS011;28397;44.552;-0.848;2023-02-28T10:41:10;5.75;;;4.45;;
42742;SDS011;28397;44.552;-0.848;2023-02-28T10:43:41;4.82;;;4.10;;
42742;SDS011;28397;44.552;-0.848;2023-02-28T10:48:37;5.88;;;4.35;;
42742;SDS011;28397;44.552;-0.848;2023-02-28T10:51:12;6.13;;;4.40;;
42742;SDS011;28397;44.552;-0.848;2023-02-28T10:53:51;5.22;;;4.35;;
42742;SDS011;28397;44.552;-0.848;2023-02-28T10:56:25;4.35;;;3.55;;
42742;SDS011;28397;44.552;-0.848;2023-02-28T10:58:53;4.55;;;4.15;;
42742;SDS011;28397;44.552;-0.848;2023-02-28T11:04:01;4.93;;;4.40;;
42742;SDS011;28397;44.552;-0.848;2023-02-28T11:06:31;6.47;;;4.35;;
42742;SDS011;28397;44.552;-0.848;2023-02-28T11:09:45;5.93;;;4.68;;
42742;SDS011;28397;44.552;-0.848;2023-02-28T11:11:57;4.53;;;4.10;;
42742;SDS011;28397;44.552;-0.848;2023-02-28T11:14:24;6.78;;;4.88;;
42742;SDS011;28397;44.552;-0.848;2023-02-28T11:16:53;5.38;;;4.32;;
42742;SDS011;28397;44.552;-0.848;2023-02-28T11:19:38;5.28;;;3.90;;
42742;SDS011;28397;44.552;-0.848;2023-02-28T11:22:09;4.43;;;3.92;;
42742;SDS011;28397;44.552;-0.848;2023-02-28T11:27:19;5.22;;;4.05;;
42742;SDS011;28397;44.552;-0.848;2023-02-28T11:29:51;4.88;;;4.20;;
42742;SDS011;28397;44.552;-0.848;2023-02-28T11:32:20;8.32;;;4.10;;
42742;SDS011;28397;44.552;-0.848;2023-02-28T11:35:36;4.70;;;3.90;;
42742;SDS011;28397;44.552;-0.848;2023-02-28T11:37:35;4.43;;;4.03;;
42742;SDS011;28397;44.552;-0.848;2023-02-28T11:40:01;5.70;;;4.53;;
42742;SDS011;28397;44.552;-0.848;2023-02-28T11:57:16;4.78;;;3.92;;
42742;SDS011;28397;44.552;-0.848;2023-02-28T12:19:18;9.48;;;5.15;;
42742;SDS011;28397;44.552;-0.848;2023-02-28T12:24:44;6.32;;;4.40;;
42742;SDS011;28397;44.552;-0.848;2023-02-28T12:27:31;7.90;;;5.03;;
42742;SDS011;28397;44.552;-0.848;2023-02-28T12:30:17;4.35;;;3.95;;
42742;SDS011;28397;44.552;-0.848;2023-02-28T12:32:52;4.80;;;4.30;;
42742;SDS011;28397;44.552;-0.848;2023-02-28T12:35:39;5.70;;;4.20;;
42742;SDS011;28397;44.552;-0.848;2023-02-28T12:38:17;4.40;;;4.00;;
42742;SDS011;28397;44.552;-0.848;2023-02-28T12:40:58;6.18;;;5.07;;
42742;SDS011;28397;44.552;-0.848;2023-02-28T12:43:31;5.70;;;4.88;;
42742;SDS011;28397;44.552;-0.848;2023-02-28T12:45:59;5.03;;;4.10;;
42742;SDS011;28397;44.552;-0.848;2023-02-28T12:48:43;4.82;;;4.20;;
42742;SDS011;28397;44.552;-0.848;2023-02-28T12:51:15;6.13;;;4.60;;
42742;SDS011;28397;44.552;-0.848;2023-02-28T12:56:53;4.95;;;4.25;;
42742;SDS011;28397;44.552;-0.848;2023-02-28T12:59:51;5.10;;;4.60;;
42742;SDS011;28397;44.552;-0.848;2023-02-28T13:05:24;4.85;;;4.40;;
42742;SDS011;28397;44.552;-0.848;2023-02-28T13:10:52;4.60;;;4.00;;
42742;SDS011;28397;44.552;-0.848;2023-02-28T13:13:23;5.57;;;4.50;;
42742;SDS011;28397;44.552;-0.848;2023-02-28T13:21:08;5.05;;;4.35;;
42742;SDS011;28397;44.552;-0.848;2023-02-28T13:26:23;5.53;;;4.88;;
42742;SDS011;28397;44.552;-0.848;2023-02-28T13:34:31;7.35;;;4.70;;
42742;SDS011;28397;44.552;-0.848;2023-02-28T13:40:26;5.75;;;4.60;;
42742;SDS011;28397;44.552;-0.848;2023-02-28T13:43:02;4.65;;;4.25;;
42742;SDS011;28397;44.552;-0.848;2023-02-28T13:45:28;7.55;;;6.80;;
42742;SDS011;28397;44.552;-0.848;2023-02-28T13:48:03;12.77;;;10.05;;
42742;SDS011;28397;44.552;-0.848;2023-02-28T13:50:50;4.68;;;4.25;;
42742;SDS011;28397;44.552;-0.848;2023-02-28T13:58:53;6.57;;;4.80;;
42742;SDS011;28397;44.552;-0.848;2023-02-28T14:06:49;5.55;;;4.65;;
42742;SDS011;28397;44.552;-0.848;2023-02-28T14:09:36;7.88;;;4.72;;
42742;SDS011;28397;44.552;-0.848;2023-02-28T14:20:57;8.88;;;4.28;;
42742;SDS011;28397;44.552;-0.848;2023-02-28T14:37:43;5.43;;;4.03;;
42742;SDS011;28397;44.552;-0.848;2023-02-28T14:43:05;6.72;;;5.88;;
42742;SDS011;28397;44.552;-0.848;2023-02-28T14:45:43;5.80;;;4.35;;
42742;SDS011;28397;44.552;-0.848;2023-02-28T14:48:15;5.55;;;4.30;;
42742;SDS011;28397;44.552;-0.848;2023-02-28T14:50:47;5.32;;;4.50;;
42742;SDS011;28397;44.552;-0.848;2023-02-28T14:53:19;4.97;;;4.05;;
42742;SDS011;28397;44.552;-0.848;2023-02-28T14:55:47;5.68;;;4.30;;
42742;SDS011;28397;44.552;-0.848;2023-02-28T14:58:33;7.05;;;4.35;;
42742;SDS011;28397;44.552;-0.848;2023-02-28T15:01:02;5.22;;;4.10;;
42742;SDS011;28397;44.552;-0.848;2023-02-28T15:06:00;5.85;;;4.40;;
42742;SDS011;28397;44.552;-0.848;2023-02-28T15:08:28;5.50;;;4.32;;
42742;SDS011;28397;44.552;-0.848;2023-02-28T15:11:01;5.22;;;4.45;;
42742;SDS011;28397;44.552;-0.848;2023-02-28T15:16:08;7.70;;;4.70;;
42742;SDS011;28397;44.552;-0.848;2023-02-28T15:18:43;4.90;;;4.10;;
42742;SDS011;28397;44.552;-0.848;2023-02-28T15:21:15;4.97;;;4.53;;
42742;SDS011;28397;44.552;-0.848;2023-02-28T15:24:02;5.70;;;4.47;;
42742;SDS011;28397;44.552;-0.848;2023-02-28T15:26:39;5.18;;;4.32;;
42742;SDS011;28397;44.552;-0.848;2023-02-28T15:29:15;8.52;;;5.85;;
42742;SDS011;28397;44.552;-0.848;2023-02-28T15:31:47;5.22;;;4.57;;
42742;SDS011;28397;44.552;-0.848;2023-02-28T15:34:19;8.38;;;6.28;;
42742;SDS011;28397;44.552;-0.848;2023-02-28T15:36:47;6.32;;;4.35;;
42742;SDS011;28397;44.552;-0.848;2023-02-28T15:39:24;5.43;;;4.50;;
42742;SDS011;28397;44.552;-0.848;2023-02-28T15:41:52;4.22;;;3.80;;
42742;SDS011;28397;44.552;-0.848;2023-02-28T15:44:34;9.75;;;6.55;;
42742;SDS011;28397;44.552;-0.848;2023-02-28T15:47:07;9.98;;;8.98;;
42742;SDS011;28397;44.552;-0.848;2023-02-28T15:52:15;16.63;;;13.85;;
42742;SDS011;28397;44.552;-0.848;2023-02-28T15:54:44;14.43;;;12.93;;
42742;SDS011;28397;44.552;-0.848;2023-02-28T15:57:13;4.53;;;4.13;;
42742;SDS011;28397;44.552;-0.848;2023-02-28T15:59:45;21.58;;;17.77;;
42742;SDS011;28397;44.552;-0.848;2023-02-28T16:02:18;33.90;;;28.40;;
42742;SDS011;28397;44.552;-0.848;2023-02-28T16:04:55;14.20;;;10.88;;
42742;SDS011;28397;44.552;-0.848;2023-02-28T16:07:22;5.25;;;4.00;;
42742;SDS011;28397;44.552;-0.848;2023-02-28T16:09:49;50.72;;;34.78;;
42742;SDS011;28397;44.552;-0.848;2023-02-28T16:12:15;129.70;;;75.82;;
42742;SDS011;28397;44.552;-0.848;2023-02-28T16:14:41;141.68;;;72.18;;
42742;SDS011;28397;44.552;-0.848;2023-02-28T16:17:12;5.82;;;5.13;;
42742;SDS011;28397;44.552;-0.848;2023-02-28T16:19:45;7.07;;;5.97;;
42742;SDS011;28397;44.552;-0.848;2023-02-28T16:22:10;8.85;;;6.65;;
42742;SDS011;28397;44.552;-0.848;2023-02-28T16:24:36;6.43;;;5.72;;
42742;SDS011;28397;44.552;-0.848;2023-02-28T16:27:03;5.28;;;4.40;;
42742;SDS011;28397;44.552;-0.848;2023-02-28T16:29:31;4.97;;;4.00;;
42742;SDS011;28397;44.552;-0.848;2023-02-28T16:31:59;7.43;;;4.45;;
42742;SDS011;28397;44.552;-0.848;2023-02-28T16:34:26;6.20;;;4.50;;
42742;SDS011;28397;44.552;-0.848;2023-02-28T16:36:52;4.25;;;3.85;;
42742;SDS011;28397;44.552;-0.848;2023-02-28T16:39:18;4.35;;;3.95;;
42742;SDS011;28397;44.552;-0.848;2023-02-28T16:41:45;6.35;;;4.82;;
42742;SDS011;28397;44.552;-0.848;2023-02-28T16:44:46;5.03;;;4.53;;
42742;SDS011;28397;44.552;-0.848;2023-02-28T16:47:05;5.57;;;4.70;;
42742;SDS011;28397;44.552;-0.848;2023-02-28T16:49:31;7.55;;;4.65;;
42742;SDS011;28397;44.552;-0.848;2023-02-28T16:51:56;7.63;;;5.30;;
42742;SDS011;28397;44.552;-0.848;2023-02-28T16:54:22;5.47;;;4.53;;
42742;SDS011;28397;44.552;-0.848;2023-02-28T16:56:48;11.77;;;9.82;;
42742;SDS011;28397;44.552;-0.848;2023-02-28T16:59:17;9.10;;;6.05;;
42742;SDS011;28397;44.552;-0.848;2023-02-28T17:01:46;14.55;;;12.07;;
42742;SDS011;28397;44.552;-0.848;2023-02-28T17:04:12;11.95;;;7.30;;
42742;SDS011;28397;44.552;-0.848;2023-02-28T17:06:39;9.98;;;8.75;;